Time;durP1;ratioP1;P1;durP2;ratioP2;P2;SDS_P1;SDS_P2;PMS_P1;PMS_P2;Temp;Humidity;BMP_temperature;BMP_pressure;BME280_temperature;BME280_humidity;BME280_pressure;Samples;Min_cycle;Max_cycle;Signal;HPM_P1;HPM_P2
2023/03/01 07:01:31;;;;;;;13.05;9.77;;;;;;;-145.79;53.09;80394.66;5278531;28;20398;-71
2023/03/01 07:04:02;;;;;;;12.85;9.70;;;;;;;-145.79;53.79;80390.41;5258603;28;20037;-71
2023/03/01 07:06:34;;;;;;;12.45;10.07;;;;;;;-145.79;53.98;80384.03;5258625;28;20029;-72
2023/03/01 07:09:05;;;;;;;11.65;9.80;;;;;;;-145.79;53.90;80371.31;5258133;28;20096;-71
2023/03/01 07:11:36;;;;;;;10.52;8.63;;;;;;;-145.79;53.69;80386.16;5259087;28;20032;-71
2023/03/01 07:14:08;;;;;;;12.20;8.90;;;;;;;-145.79;54.12;80373.44;5258369;28;20473;-71
2023/03/01 07:16:39;;;;;;;13.88;9.23;;;;;;;-145.79;54.35;80369.19;5258480;28;20025;-71
2023/03/01 07:19:11;;;;;;;11.38;9.23;;;;;;;-145.79;54.23;80358.59;5258574;28;20029;-72
2023/03/01 07:21:42;;;;;;;11.60;9.38;;;;;;;-145.79;53.96;80369.19;5257512;28;20465;-73
2023/03/01 07:24:13;;;;;;;11.73;9.35;;;;;;;-145.79;54.37;80362.81;5257249;28;20065;-72
2023/03/01 07:26:48;;;;;;;11.32;9.05;;;;;;;-145.79;54.07;80352.22;5259246;28;20017;-72
2023/03/01 07:29:20;;;;;;;11.45;9.10;;;;;;;-145.79;54.38;80358.59;5257778;28;20032;-71
2023/03/01 07:31:51;;;;;;;13.50;9.10;;;;;;;-145.79;54.04;80337.38;5259265;28;20021;-71
2023/03/01 07:34:25;;;;;;;12.70;9.52;;;;;;;-145.79;53.82;80337.38;5258835;28;20095;-72
2023/03/01 07:36:57;;;;;;;11.88;9.32;;;;;;;-145.79;53.39;80324.66;5258136;28;20105;-72
2023/03/01 07:39:28;;;;;;;10.27;8.68;;;;;;;-145.79;53.40;80320.41;5258960;28;20108;-71
2023/03/01 07:41:59;;;;;;;10.52;8.68;;;;;;;-145.79;53.39;80299.19;5258761;28;20412;-72
2023/03/01 07:44:31;;;;;;;10.88;8.50;;;;;;;-145.79;53.20;80294.94;5257884;28;20029;-73
2023/03/01 07:47:04;;;;;;;10.63;9.05;;;;;;;-145.79;52.89;80286.47;5258254;28;20025;-72
2023/03/01 07:49:35;;;;;;;10.77;8.20;;;;;;;-145.79;53.07;80284.34;5258226;28;20380;-73
2023/03/01 07:52:06;;;;;;;12.27;9.48;;;;;;;-145.79;52.83;80269.50;5257931;28;20124;-71
2023/03/01 07:54:38;;;;;;;12.70;9.38;;;;;;;-145.79;52.48;80273.75;5258460;28;20028;-73
2023/03/01 07:57:10;;;;;;;11.50;8.32;;;;;;;-145.79;52.40;80263.13;5257615;28;20104;-74
2023/03/01 07:59:41;;;;;;;10.57;9.35;;;;;;;-145.79;52.96;80256.78;5258063;28;20575;-73
2023/03/01 08:02:12;;;;;;;11.65;8.60;;;;;;;-145.79;52.45;80252.53;5248513;28;20036;-73
2023/03/01 08:04:44;;;;;;;12.75;8.23;;;;;;;-145.79;52.69;80252.53;5245324;28;20020;-73
2023/03/01 08:07:15;;;;;;;13.20;9.15;;;;;;;-145.79;52.47;80248.28;5258657;28;20094;-73
2023/03/01 08:09:46;;;;;;;10.60;9.15;;;;;;;-145.79;52.16;80244.03;5258107;28;20096;-73
2023/03/01 08:12:18;;;;;;;13.00;9.88;;;;;;;-145.79;51.88;80239.78;5246737;28;20029;-74
2023/03/01 08:14:49;;;;;;;14.13;9.25;;;;;;;-145.79;52.18;80235.56;5243152;28;20029;-73
2023/03/01 08:17:20;;;;;;;12.95;8.30;;;;;;;-145.79;51.93;80224.94;5243902;28;20047;-73
2023/03/01 08:19:52;;;;;;;12.73;8.48;;;;;;;-145.79;51.83;80231.31;5242893;28;20045;-71
2023/03/01 08:22:23;;;;;;;7.45;6.75;;;;;;;-145.79;65.14;80108.28;5244229;28;20072;-75
2023/03/01 08:24:55;;;;;;;12.50;9.05;;;;;;;-145.79;55.54;80144.34;5250846;28;20028;-70
2023/03/01 08:27:26;;;;;;;9.88;8.57;;;;;;;-145.79;52.76;80125.25;5242315;28;20033;-68
2023/03/01 08:29:58;;;;;;;11.75;9.65;;;;;;;-145.79;52.27;80125.25;5243530;28;20025;-69
2023/03/01 08:32:29;;;;;;;10.45;9.30;;;;;;;-145.79;51.63;80146.47;5242945;28;20479;-69
2023/03/01 08:35:00;;;;;;;11.00;8.88;;;;;;;-145.79;51.51;80135.88;5243630;28;20041;-70
2023/03/01 08:37:32;;;;;;;11.07;9.23;;;;;;;-145.79;51.69;80121.00;5243971;28;20021;-69
2023/03/01 08:40:07;;;;;;;14.20;9.52;;;;;;;-145.79;51.21;80125.25;5242720;28;20064;-68
2023/03/01 08:42:38;;;;;;;10.43;8.70;;;;;;;-145.79;50.88;80101.94;5243975;28;20037;-69
2023/03/01 08:45:10;;;;;;;10.63;8.68;;;;;;;-145.79;51.05;80101.94;5243179;28;20017;-69
2023/03/01 08:47:42;;;;;;;9.82;8.18;;;;;;;-145.79;50.52;80089.19;5242588;28;20029;-68
2023/03/01 08:50:13;;;;;;;9.57;7.88;;;;;;;-145.79;50.51;80084.97;5243360;28;20028;-68
2023/03/01 08:52:44;;;;;;;9.85;8.75;;;;;;;-145.79;51.03;80072.22;5243360;28;20022;-68
2023/03/01 08:55:17;;;;;;;11.95;8.77;;;;;;;-145.79;50.31;80059.50;5242434;28;20053;-68
2023/03/01 08:57:48;;;;;;;20.40;15.38;;;;;;;-145.79;50.33;80070.09;5243642;28;20032;-68
2023/03/01 09:00:20;;;;;;;9.40;8.38;;;;;;;-145.79;50.44;80053.16;5241557;28;20049;-69
2023/03/01 09:02:51;;;;;;;12.13;9.20;;;;;;;-145.79;50.18;80044.66;5228009;28;20148;-69
2023/03/01 09:05:22;;;;;;;9.60;8.60;;;;;;;-145.79;49.84;80044.66;5242653;28;20044;-68
2023/03/01 09:07:53;;;;;;;11.35;8.00;;;;;;;-145.79;49.45;80031.94;5242404;28;20029;-69
2023/03/01 09:10:25;;;;;;;31.52;22.15;;;;;;;-145.79;49.66;80008.59;5242875;28;20112;-69
2023/03/01 09:12:56;;;;;;;10.32;9.32;;;;;;;-145.79;49.13;80002.25;5243361;28;20034;-69
2023/03/01 09:15:27;;;;;;;11.73;8.20;;;;;;;-145.79;48.23;79998.00;5241873;28;20053;-69
2023/03/01 09:17:59;;;;;;;10.88;7.93;;;;;;;-145.79;48.37;79989.50;5242424;28;20033;-69
2023/03/01 09:20:31;;;;;;;8.57;7.68;;;;;;;-145.79;47.93;79976.78;5239128;28;20113;-69
2023/03/01 09:23:03;;;;;;;10.55;7.85;;;;;;;-145.79;47.92;79976.78;5241230;28;20057;-69
2023/03/01 09:25:34;;;;;;;9.57;7.63;;;;;;;-145.79;47.55;79964.06;5242384;28;20116;-69
2023/03/01 09:28:06;;;;;;;9.15;7.07;;;;;;;-145.79;47.25;79955.56;5242214;28;20560;-69
2023/03/01 09:30:37;;;;;;;12.10;7.93;;;;;;;-145.79;48.19;79951.34;5241396;28;20399;-68
2023/03/01 09:33:14;;;;;;;9.68;7.38;;;;;;;-145.79;47.43;79930.13;5242099;28;20022;-69
2023/03/01 09:35:46;;;;;;;13.35;9.75;;;;;;;-145.79;48.02;79921.63;5241825;28;20025;-68
2023/03/01 09:38:17;;;;;;;13.48;8.38;;;;;;;-145.79;46.97;79896.19;5242527;28;20032;-68
2023/03/01 09:40:49;;;;;;;11.80;7.97;;;;;;;-145.79;46.56;79894.06;5241592;28;20029;-69
2023/03/01 09:44:08;;;;;;;11.15;8.15;;;;;;;-145.79;46.64;79896.19;5241708;28;20052;-70
2023/03/01 09:46:45;;;;;;;8.48;7.50;;;;;;;-145.79;47.29;79885.59;5242027;28;20033;-71
2023/03/01 09:49:23;;;;;;;10.38;8.40;;;;;;;-145.79;46.96;79879.22;5242827;28;20541;-71
2023/03/01 09:52:09;;;;;;;10.75;8.77;;;;;;;-145.79;47.26;79855.88;5241253;28;20026;-72
2023/03/01 09:54:40;;;;;;;12.50;9.82;;;;;;;-145.79;45.71;79845.28;5241954;28;20028;-71
2023/03/01 09:57:20;;;;;;;8.60;7.80;;;;;;;-145.79;45.80;79853.78;5241117;28;20029;-71
2023/03/01 10:00:13;;;;;;;11.25;7.90;;;;;;;-145.79;46.30;79838.91;5241217;28;20099;-71
2023/03/01 10:03:13;;;;;;;8.60;7.72;;;;;;;-145.79;45.73;79817.72;5242073;28;20021;-71
2023/03/01 10:05:56;;;;;;;8.48;7.20;;;;;;;-145.79;45.46;79824.06;5241025;28;20530;-70
2023/03/01 10:08:49;;;;;;;8.73;7.65;;;;;;;-145.79;44.86;79802.88;5242057;28;20029;-70
2023/03/01 10:11:32;;;;;;;9.23;7.25;;;;;;;-145.79;45.12;79779.53;5241009;28;20025;-70
2023/03/01 10:14:18;;;;;;;10.15;7.38;;;;;;;-145.79;44.08;79771.06;5241824;28;20456;-69
2023/03/01 10:17:02;;;;;;;7.50;6.70;;;;;;;-145.79;43.99;79775.28;5241601;28;20056;-72
2023/03/01 10:19:44;;;;;;;11.73;7.90;;;;;;;-145.79;43.93;79768.94;5240618;28;20045;-70
2023/03/01 10:22:28;;;;;;;9.13;8.20;;;;;;;-145.79;43.84;79760.44;5241839;28;20057;-71
2023/03/01 10:25:03;;;;;;;10.05;7.38;;;;;;;-145.79;43.89;79764.69;5240448;28;20073;-70
2023/03/01 10:27:51;;;;;;;8.80;7.70;;;;;;;-145.79;43.96;79747.72;5241041;28;20022;-71
2023/03/01 10:30:34;;;;;;;9.30;7.97;;;;;;;-145.79;43.85;79741.38;5231767;28;20079;-70
2023/03/01 10:33:15;;;;;;;10.20;7.60;;;;;;;-145.79;43.79;79739.25;5240642;28;20033;-69
2023/03/01 10:35:48;;;;;;;8.50;7.18;;;;;;;-145.79;43.49;79735.00;5240714;28;20056;-72
2023/03/01 10:38:22;;;;;;;11.55;7.85;;;;;;;-145.79;43.49;79732.88;5240157;28;20033;-71
2023/03/01 10:40:56;;;;;;;13.02;11.50;;;;;;;-145.79;43.06;79732.88;5238620;28;20049;-70
2023/03/01 10:43:43;;;;;;;8.60;7.70;;;;;;;-145.79;43.93;79709.53;5239809;28;20504;-71
2023/03/01 10:46:36;;;;;;;;;;;;;;;-145.79;44.15;79688.34;5241455;28;20105;-71
2023/03/01 10:49:21;;;;;;;9.98;8.15;;;;;;;-145.79;43.17;79684.09;5241587;28;20280;-72
2023/03/01 10:51:53;;;;;;;9.20;6.97;;;;;;;-145.79;42.54;79698.94;5241462;28;20413;-71
2023/03/01 10:54:29;;;;;;;7.13;6.43;;;;;;;-145.79;43.41;79677.72;5240291;28;20115;-70
2023/03/01 10:57:03;;;;;;;13.30;8.32;;;;;;;-145.79;45.46;79645.91;5241457;28;20044;-70
2023/03/01 10:59:39;;;;;;;8.05;7.25;;;;;;;-145.79;42.95;79643.81;5240617;28;20055;-71
2023/03/01 11:02:30;;;;;;;8.98;6.95;;;;;;;-145.79;41.92;79645.91;5240826;28;20018;-71
2023/03/01 11:05:16;;;;;;;8.73;7.15;;;;;;;-145.79;41.81;79662.88;5240755;28;20107;-71
2023/03/01 11:07:56;;;;;;;8.73;7.78;;;;;;;-145.79;42.23;79639.56;5241008;28;20056;-70
2023/03/01 11:10:30;;;;;;;6.85;6.13;;;;;;;-145.79;54.39;79548.38;5241825;28;20029;-74
2023/03/01 11:13:17;;;;;;;8.27;7.05;;;;;;;-145.79;47.36;79565.34;5241150;28;20101;-73
2023/03/01 11:15:59;;;;;;;8.60;6.63;;;;;;;-145.79;45.23;79558.97;5240706;28;20487;-69
2023/03/01 11:18:31;;;;;;;10.95;8.18;;;;;;;-145.79;42.87;79569.56;5240194;28;20049;-69
2023/03/01 11:21:04;;;;;;;9.73;8.80;;;;;;;-145.79;42.79;79558.97;5239772;28;20456;-68
2023/03/01 11:23:38;;;;;;;9.77;8.73;;;;;;;-145.79;42.65;79550.47;5240582;28;20088;-69
2023/03/01 11:26:12;;;;;;;10.50;8.73;;;;;;;-145.79;41.96;79561.09;5240929;28;20024;-69
2023/03/01 11:28:49;;;;;;;11.32;9.35;;;;;;;-145.79;41.47;79561.09;5240049;28;20033;-69
2023/03/01 11:31:23;;;;;;;12.40;10.93;;;;;;;-145.79;42.57;79548.38;5241115;28;20087;-68
2023/03/01 11:34:11;;;;;;;12.85;9.35;;;;;;;-145.79;41.42;79554.72;5240787;28;20021;-67
2023/03/01 11:36:58;;;;;;;14.15;11.18;;;;;;;-145.79;41.42;79561.09;5239748;28;20033;-68
2023/03/01 11:39:50;;;;;;;11.10;8.25;;;;;;;-145.79;41.70;79544.13;5240447;28;20037;-68
2023/03/01 11:42:42;;;;;;;10.20;8.43;;;;;;;-145.79;42.29;79522.91;5239995;28;20108;-69
2023/03/01 11:45:14;;;;;;;10.07;8.82;;;;;;;-145.79;40.86;79531.41;5241614;28;20025;-69
2023/03/01 11:48:30;;;;;;;9.23;8.30;;;;;;;-145.79;41.44;79491.09;5244514;28;20017;-68
2023/03/01 11:51:08;;;;;;;8.70;7.83;;;;;;;-145.79;40.09;79482.63;5245446;28;20048;-70
2023/03/01 11:54:04;;;;;;;12.02;7.95;;;;;;;-145.79;40.64;79478.38;5247145;28;20032;-68
2023/03/01 11:56:43;;;;;;;10.75;8.65;;;;;;;-145.79;40.13;79480.50;5245889;28;20041;-71
2023/03/01 11:59:57;;;;;;;10.50;7.97;;;;;;;-145.79;41.01;79457.16;5245347;28;20021;-68
2023/03/01 12:02:48;;;;;;;8.25;7.38;;;;;;;-145.79;41.25;79431.72;5247161;28;20061;-71
2023/03/01 12:05:26;;;;;;;10.35;8.05;;;;;;;-145.79;40.95;79429.59;5246605;28;20029;-69
2023/03/01 12:08:18;;;;;;;10.30;8.23;;;;;;;-145.79;40.46;79397.78;5249503;28;20113;-68
2023/03/01 12:11:08;;;;;;;12.05;8.48;;;;;;;-145.79;39.95;79402.03;5245089;28;20025;-69
2023/03/01 12:14:08;;;;;;;9.23;7.03;;;;;;;-145.79;38.93;79406.28;5246040;28;20449;-69
2023/03/01 12:17:06;;;;;;;9.18;7.10;;;;;;;-145.79;39.62;79382.94;5248816;28;20025;-69
2023/03/01 12:19:48;;;;;;;10.23;8.23;;;;;;;-145.79;38.65;79382.94;5245217;28;20524;-70
2023/03/01 12:22:30;;;;;;;12.80;9.07;;;;;;;-145.79;39.06;79391.44;5246769;28;20452;-70
2023/03/01 12:25:26;;;;;;;12.13;9.93;;;;;;;-145.79;40.11;79382.94;5245662;28;20429;-70
2023/03/01 12:28:16;;;;;;;10.40;8.38;;;;;;;-145.79;39.64;79372.34;5244233;28;20029;-69
2023/03/01 12:30:59;;;;;;;9.27;8.38;;;;;;;-145.79;39.84;79370.22;5240240;28;20042;-69
2023/03/01 12:33:54;;;;;;;8.77;7.53;;;;;;;-145.79;39.98;79357.50;5223822;28;20105;-70
2023/03/01 12:36:49;;;;;;;8.27;7.45;;;;;;;-145.79;39.48;79351.13;5224897;28;20389;-69
2023/03/01 12:39:20;;;;;;;12.93;10.23;;;;;;;-145.79;39.46;79327.81;5225328;28;20032;-70
2023/03/01 12:41:54;;;;;;;8.63;7.82;;;;;;;-145.79;38.51;79327.81;5232278;28;20025;-69
2023/03/01 12:44:55;;;;;;;8.88;8.07;;;;;;;-145.79;38.55;79298.13;5243553;28;20026;-69
2023/03/01 12:47:33;;;;;;;34.35;28.83;;;;;;;-145.79;38.59;79293.88;5243648;28;20033;-70
2023/03/01 12:50:16;;;;;;;15.98;13.23;;;;;;;-145.79;38.19;79289.63;5244097;28;20036;-68
2023/03/01 12:52:56;;;;;;;8.20;7.00;;;;;;;-145.79;38.74;79298.13;5242842;28;20038;-69
2023/03/01 12:55:32;;;;;;;9.73;7.97;;;;;;;-145.79;37.47;79300.25;5243445;28;20029;-69
2023/03/01 12:58:13;;;;;;;13.23;10.07;;;;;;;-145.79;37.28;79281.16;5243346;28;20116;-70
2023/03/01 13:01:05;;;;;;;13.07;9.98;;;;;;;-145.79;37.02;79264.19;5236645;28;20045;-69
2023/03/01 13:04:01;;;;;;;11.27;9.18;;;;;;;-145.79;37.48;79247.22;5243570;28;20487;-70
2023/03/01 13:06:41;;;;;;;8.10;7.30;;;;;;;-145.79;37.35;79238.75;5243915;28;20104;-70
2023/03/01 13:09:34;;;;;;;12.80;8.70;;;;;;;-145.79;38.78;79215.41;5243489;28;20060;-70
2023/03/01 13:12:47;;;;;;;7.95;7.15;;;;;;;-145.79;37.71;79183.59;5244169;28;20117;-70
2023/03/01 13:15:24;;;;;;;9.23;7.28;;;;;;;-145.79;36.93;79179.38;5243925;28;20140;-69
2023/03/01 13:17:58;;;;;;;9.68;8.55;;;;;;;-145.79;36.46;79187.84;5243285;28;20026;-69
2023/03/01 13:20:41;;;;;;;10.73;7.78;;;;;;;-145.79;37.06;79141.19;5242318;28;20033;-69
2023/03/01 13:23:18;;;;;;;9.10;7.97;;;;;;;-145.79;36.38;79158.16;5242567;28;20377;-70
2023/03/01 13:25:58;;;;;;;9.65;7.88;;;;;;;-145.79;36.79;79141.19;5242613;28;20377;-69
2023/03/01 13:28:35;;;;;;;9.15;7.25;;;;;;;-145.79;36.68;79122.09;5242029;28;20029;-68
2023/03/01 13:31:09;;;;;;;7.80;6.90;;;;;;;-145.79;36.88;79120.00;5242440;28;20057;-69
2023/03/01 13:33:53;;;;;;;9.13;7.63;;;;;;;-145.79;36.50;79103.03;5242457;28;20052;-68
2023/03/01 13:36:28;;;;;;;9.18;7.07;;;;;;;-145.79;36.19;79077.56;5242213;28;20108;-68
2023/03/01 13:39:02;;;;;;;22.27;15.15;;;;;;;-145.79;35.70;79075.47;5241320;28;20041;-70
2023/03/01 13:41:42;;;;;;;14.10;12.38;;;;;;;-145.79;36.82;79020.31;5242142;28;20029;-69
2023/03/01 13:44:26;;;;;;;7.88;7.07;;;;;;;-145.79;36.83;79026.69;5242227;28;20091;-69
2023/03/01 13:47:03;;;;;;;11.00;7.25;;;;;;;-145.79;36.13;79028.81;5242331;28;20041;-68
2023/03/01 13:49:49;;;;;;;9.15;8.27;;;;;;;-145.79;35.59;79024.56;5241332;28;20044;-68
2023/03/01 13:52:29;;;;;;;7.68;6.90;;;;;;;-145.79;36.43;78988.53;5242409;28;20342;-68
2023/03/01 13:55:03;;;;;;;7.70;6.68;;;;;;;-145.79;35.58;79001.25;5241493;28;20568;-67
2023/03/01 13:57:40;;;;;;;9.63;7.53;;;;;;;-145.79;36.61;78988.53;5241319;28;20028;-67
2023/03/01 14:00:35;;;;;;;7.85;7.05;;;;;;;-145.79;35.71;78969.44;5241468;28;20042;-68
2023/03/01 14:03:11;;;;;;;8.98;7.53;;;;;;;-145.79;35.24;78984.28;5241503;28;20420;-69
2023/03/01 14:05:58;;;;;;;12.00;8.38;;;;;;;-145.79;35.66;78975.78;5241635;28;20100;-68
2023/03/01 14:08:33;;;;;;;9.70;8.07;;;;;;;-145.79;35.38;78971.56;5241201;28;20121;-68
2023/03/01 14:11:13;;;;;;;7.20;6.20;;;;;;;-145.79;36.45;78944.00;5240929;28;20017;-68
2023/03/01 14:14:25;;;;;;;8.52;6.80;;;;;;;-145.79;35.45;78956.72;5241936;28;20033;-69
2023/03/01 14:17:12;;;;;;;8.80;6.32;;;;;;;-145.79;35.72;78971.56;5241087;28;20037;-68
2023/03/01 14:19:46;;;;;;;9.35;6.90;;;;;;;-145.79;35.35;78990.63;5241309;28;20109;-68
2023/03/01 14:22:21;;;;;;;8.20;7.15;;;;;;;-145.79;35.33;78990.63;5241462;28;20033;-68
2023/03/01 14:24:57;;;;;;;9.32;6.72;;;;;;;-145.79;35.47;78990.63;5240356;28;20039;-68
2023/03/01 14:27:42;;;;;;;8.13;7.15;;;;;;;-145.79;35.91;78986.41;5241463;28;20029;-69
2023/03/01 14:30:25;;;;;;;7.57;6.80;;;;;;;-145.79;36.22;78992.75;5240775;28;20030;-69
2023/03/01 14:32:58;;;;;;;8.05;7.15;;;;;;;-145.79;35.63;78969.44;5240531;28;20157;-68
2023/03/01 14:35:32;;;;;;;9.40;7.18;;;;;;;-145.79;35.84;78967.31;5240820;28;20021;-68
2023/03/01 14:38:04;;;;;;;8.02;6.45;;;;;;;-145.79;35.49;78990.63;5240351;28;20017;-68
2023/03/01 14:40:37;;;;;;;12.93;10.15;;;;;;;-145.79;35.23;78997.00;5240447;28;20037;-70
2023/03/01 14:43:11;;;;;;;8.85;7.25;;;;;;;-145.79;34.89;78982.16;5241388;28;20353;-69
2023/03/01 14:45:48;;;;;;;8.67;7.47;;;;;;;-145.79;34.72;78982.16;5240545;28;20075;-71
2023/03/01 14:48:20;;;;;;;8.70;6.57;;;;;;;-145.79;34.90;78973.69;5241630;28;20048;-69
2023/03/01 14:50:51;;;;;;;8.30;7.25;;;;;;;-145.79;35.31;79001.25;5240864;28;20030;-69
2023/03/01 14:53:26;;;;;;;8.35;7.32;;;;;;;-145.79;35.65;79001.25;5240859;28;20024;-68
2023/03/01 14:56:02;;;;;;;10.15;8.40;;;;;;;-145.79;35.76;78950.34;5241011;28;20022;-68
2023/03/01 14:58:34;;;;;;;;;;;;;;;-145.79;36.07;78924.91;5241475;28;20103;-68
2023/03/01 15:01:06;;;;;;;51.92;35.88;;;;;;;-145.79;34.77;78931.25;5237041;28;19952;-69
2023/03/01 15:03:43;;;;;;;59.38;43.97;;;;;;;-145.79;35.45;78924.91;5240859;28;20438;-68
2023/03/01 15:06:17;;;;;;;10.10;8.35;;;;;;;-145.79;35.31;78952.47;5240348;28;20087;-67
2023/03/01 15:08:54;;;;;;;8.30;6.50;;;;;;;-145.79;40.23;78899.47;5240052;28;20033;-67
2023/03/01 15:11:33;;;;;;;8.50;7.50;;;;;;;-145.79;36.35;78903.69;5240524;28;20037;-68
2023/03/01 15:14:25;;;;;;;10.43;8.55;;;;;;;-145.79;35.72;78893.09;5240040;28;20034;-70
2023/03/01 15:16:56;;;;;;;9.20;7.40;;;;;;;-145.79;35.42;78899.47;5220053;28;20556;-71
2023/03/01 15:19:28;;;;;;;12.60;8.65;;;;;;;-145.79;34.64;78927.03;5222640;28;20037;-68
2023/03/01 15:22:11;;;;;;;9.75;8.60;;;;;;;-145.79;34.89;78903.69;5241039;28;20108;-68
2023/03/01 15:24:48;;;;;;;11.85;8.55;;;;;;;-145.79;34.43;78918.53;5245088;28;20129;-70
2023/03/01 15:27:23;;;;;;;8.95;7.80;;;;;;;-145.79;34.72;78914.31;5244841;28;20018;-69
2023/03/01 15:30:01;;;;;;;12.90;7.95;;;;;;;-145.79;34.58;78912.19;5247995;28;20461;-70
2023/03/01 15:32:36;;;;;;;11.95;8.95;;;;;;;-145.79;35.58;78924.91;5244396;28;20030;-71
2023/03/01 15:35:32;;;;;;;9.27;8.20;;;;;;;-145.79;35.90;78933.38;5243846;28;20034;-69
2023/03/01 15:38:04;;;;;;;8.52;7.63;;;;;;;-145.79;35.50;78941.88;5244682;28;20420;-69
2023/03/01 15:40:37;;;;;;;9.90;8.90;;;;;;;-145.79;35.54;78960.94;5244649;28;20033;-68
2023/03/01 15:43:38;;;;;;;8.75;7.85;;;;;;;-145.79;35.78;78937.63;5244250;28;20033;-69
2023/03/01 15:46:40;;;;;;;10.52;8.70;;;;;;;-145.79;36.16;78935.50;5244241;28;20041;-70
2023/03/01 15:49:43;;;;;;;9.52;8.52;;;;;;;-145.79;36.70;78937.63;5242934;28;20037;-69
2023/03/01 15:52:28;;;;;;;9.52;8.25;;;;;;;-145.79;36.20;78935.50;5244885;28;20491;-68
2023/03/01 15:55:02;;;;;;;11.50;8.30;;;;;;;-145.79;36.04;78980.03;5244662;28;20025;-69
2023/03/01 15:57:34;;;;;;;10.93;7.65;;;;;;;-145.79;36.66;78958.84;5243892;28;20052;-70
2023/03/01 16:00:11;;;;;;;10.15;8.27;;;;;;;-145.79;36.18;78984.28;5243458;28;20064;-68
2023/03/01 16:02:43;;;;;;;9.18;8.25;;;;;;;-145.79;36.14;79037.28;5243696;28;20354;-69
2023/03/01 16:05:22;;;;;;;10.43;9.43;;;;;;;-145.79;36.90;79009.72;5244099;28;20026;-70
2023/03/01 16:07:54;;;;;;;18.63;15.30;;;;;;;-145.79;36.21;79024.56;5244303;28;20029;-70
2023/03/01 16:10:26;;;;;;;11.38;8.75;;;;;;;-145.79;36.94;79028.81;5242857;28;20025;-68
2023/03/01 16:12:58;;;;;;;12.00;9.95;;;;;;;-145.79;36.44;79056.38;5243904;28;20385;-69
2023/03/01 16:15:33;;;;;;;12.70;9.57;;;;;;;-145.79;37.02;79058.50;5243648;28;20022;-70
2023/03/01 16:18:09;;;;;;;12.32;9.43;;;;;;;-145.79;36.68;79043.66;5242827;28;20029;-70
2023/03/01 16:20:41;;;;;;;12.18;8.98;;;;;;;-145.79;36.54;79056.38;5244207;28;20509;-69
2023/03/01 16:23:12;;;;;;;10.13;9.02;;;;;;;-145.79;37.58;79060.63;5243496;28;20029;-69
2023/03/01 16:25:44;;;;;;;12.48;9.82;;;;;;;-145.79;38.28;79045.78;5243385;28;20036;-70
2023/03/01 16:28:15;;;;;;;16.23;11.88;;;;;;;-145.79;37.42;79041.53;5243833;28;20105;-70
2023/03/01 16:30:48;;;;;;;17.63;12.80;;;;;;;-145.79;38.17;79054.25;5243334;28;20038;-70
